createdAt,value
2022-12-03T00:00:16.762Z,11.50
2022-12-03T00:02:45.465Z,11.40
2022-12-03T00:05:13.991Z,11.40
2022-12-03T00:07:42.398Z,11.40
2022-12-03T00:10:13.528Z,11.40
2022-12-03T00:12:42.037Z,11.50
2022-12-03T00:15:11.184Z,11.50
2022-12-03T00:17:39.616Z,11.60
2022-12-03T00:20:09.200Z,11.60
2022-12-03T00:22:37.560Z,11.60
2022-12-03T00:25:06.370Z,11.60
2022-12-03T00:27:36.156Z,11.60
2022-12-03T00:30:04.903Z,11.60
2022-12-03T00:32:33.256Z,11.60
2022-12-03T00:35:01.588Z,11.50
2022-12-03T00:37:29.982Z,11.60
2022-12-03T00:39:58.392Z,11.60
2022-12-03T00:42:26.821Z,11.70
2022-12-03T00:44:56.608Z,11.70
2022-12-03T00:47:24.971Z,11.70
2022-12-03T00:49:53.874Z,11.70
2022-12-03T00:52:22.366Z,11.80
2022-12-03T00:54:51.017Z,11.80
2022-12-03T00:57:19.518Z,11.80
2022-12-03T00:59:47.910Z,11.80
2022-12-03T01:02:17.802Z,11.80
2022-12-03T01:04:46.321Z,11.80
2022-12-03T01:07:14.791Z,11.90
2022-12-03T01:09:43.143Z,11.90
2022-12-03T01:12:12.065Z,11.90
2022-12-03T01:14:40.566Z,11.80
2022-12-03T01:17:09.026Z,11.70
2022-12-03T01:19:42.238Z,11.70
2022-12-03T01:22:13.368Z,11.70
2022-12-03T01:24:41.708Z,11.60
2022-12-03T01:27:10.116Z,11.60
2022-12-03T01:29:38.560Z,11.60
2022-12-03T01:32:19.382Z,11.60
2022-12-03T01:34:49.861Z,11.60
2022-12-03T01:37:18.878Z,11.60
2022-12-03T01:39:47.363Z,11.60
2022-12-03T01:42:17.629Z,11.60
2022-12-03T01:44:46.775Z,11.70
2022-12-03T01:47:16.745Z,11.70
2022-12-03T01:49:46.422Z,11.70
2022-12-03T01:52:17.362Z,11.70
2022-12-03T01:54:47.565Z,11.70
2022-12-03T01:57:20.321Z,11.70
2022-12-03T01:59:48.904Z,11.80
2022-12-03T02:02:21.099Z,11.80
2022-12-03T02:04:50.048Z,11.80
2022-12-03T02:07:21.640Z,11.80
2022-12-03T02:09:50.156Z,11.90
2022-12-03T02:12:24.117Z,11.90
2022-12-03T02:14:53.754Z,11.80
2022-12-03T02:17:22.367Z,11.80
2022-12-03T02:19:51.012Z,11.80
2022-12-03T02:22:27.141Z,11.80
2022-12-03T02:24:58.681Z,12.00
2022-12-03T02:27:29.626Z,11.90
2022-12-03T02:29:58.021Z,12.00
2022-12-03T02:32:26.457Z,12.10
2022-12-03T02:34:55.190Z,12.20
2022-12-03T02:37:26.117Z,12.20
2022-12-03T02:39:56.105Z,12.20
2022-12-03T02:42:36.909Z,12.10
2022-12-03T02:45:07.230Z,12.00
2022-12-03T02:47:36.602Z,11.90
2022-12-03T02:50:05.897Z,11.90
2022-12-03T02:52:34.470Z,11.90
2022-12-03T02:55:03.648Z,11.80
2022-12-03T02:57:32.185Z,11.80
2022-12-03T03:00:00.652Z,11.80
2022-12-03T03:02:30.625Z,11.80
2022-12-03T03:04:59.207Z,11.90
2022-12-03T03:07:27.740Z,11.90
2022-12-03T03:09:56.530Z,11.90
2022-12-03T03:12:25.017Z,11.90
2022-12-03T03:14:53.812Z,11.90
2022-12-03T03:17:22.667Z,11.90
2022-12-03T03:19:52.530Z,11.90
2022-12-03T03:22:20.889Z,11.80
2022-12-03T03:24:49.727Z,11.70
2022-12-03T03:27:18.183Z,11.70
2022-12-03T03:29:46.564Z,11.70
2022-12-03T03:32:15.000Z,11.80
2022-12-03T03:34:43.460Z,11.90
2022-12-03T03:37:13.373Z,12.00
2022-12-03T03:39:41.799Z,12.20
2022-12-03T03:42:10.670Z,12.30
2022-12-03T03:44:39.152Z,12.30
2022-12-03T03:47:07.891Z,12.30
2022-12-03T03:49:36.425Z,12.30
2022-12-03T03:52:04.995Z,12.30
2022-12-03T03:54:34.855Z,12.20
2022-12-03T03:57:03.287Z,12.10
2022-12-03T03:59:31.659Z,12.10
2022-12-03T04:02:00.091Z,12.10
2022-12-03T04:04:29.879Z,12.10
2022-12-03T04:06:58.313Z,12.00
2022-12-03T04:09:26.733Z,12.10
2022-12-03T04:12:10.319Z,12.10
2022-12-03T04:14:38.735Z,12.10
2022-12-03T04:17:07.222Z,12.10
2022-12-03T04:19:35.678Z,12.10
2022-12-03T04:22:20.412Z,12.00
2022-12-03T04:24:48.920Z,11.90
2022-12-03T04:27:35.977Z,11.80
2022-12-03T04:30:04.454Z,11.70
2022-12-03T04:32:50.332Z,11.70
2022-12-03T04:35:35.955Z,11.60
2022-12-03T04:38:04.327Z,11.60
2022-12-03T04:40:49.924Z,11.60
2022-12-03T04:43:19.770Z,11.60
2022-12-03T04:45:48.355Z,11.50
2022-12-03T04:48:17.024Z,11.50
2022-12-03T04:50:45.423Z,11.50
2022-12-03T04:53:13.793Z,11.40
2022-12-03T04:55:42.178Z,11.40
2022-12-03T04:58:10.653Z,11.40
2022-12-03T05:00:40.433Z,11.40
2022-12-03T05:03:08.871Z,11.40
2022-12-03T05:05:37.261Z,11.30
2022-12-03T05:08:05.863Z,11.30
2022-12-03T05:10:34.401Z,11.30
2022-12-03T05:13:02.792Z,11.30
2022-12-03T05:15:31.175Z,11.30
2022-12-03T05:18:00.963Z,11.30
2022-12-03T05:20:49.778Z,11.30
2022-12-03T05:23:21.339Z,11.30
2022-12-03T05:25:49.846Z,11.40
2022-12-03T05:28:18.269Z,11.40
2022-12-03T05:30:46.714Z,11.40
2022-12-03T05:33:16.680Z,11.50
2022-12-03T05:35:45.121Z,11.60
2022-12-03T05:38:13.581Z,11.60
2022-12-03T05:40:42.020Z,11.60
2022-12-03T05:43:09.344Z,11.60
2022-12-03T05:45:38.417Z,11.60
2022-12-03T05:48:07.761Z,11.50
2022-12-03T05:50:38.637Z,11.50
2022-12-03T05:53:07.288Z,11.50
2022-12-03T05:55:35.647Z,11.60
2022-12-03T05:58:03.996Z,11.60
2022-12-03T06:00:34.588Z,11.70
2022-12-03T06:03:07.213Z,11.70
2022-12-03T06:05:37.161Z,11.80
2022-12-03T06:08:05.690Z,11.80
2022-12-03T06:10:34.090Z,11.80
2022-12-03T06:13:03.370Z,11.80
2022-12-03T06:15:31.878Z,11.80
2022-12-03T06:18:00.263Z,11.80
2022-12-03T06:20:28.631Z,11.80
2022-12-03T06:22:58.430Z,11.80
2022-12-03T06:25:26.832Z,11.90
2022-12-03T06:27:55.296Z,11.80
2022-12-03T06:30:23.712Z,11.70
2022-12-03T06:32:52.070Z,11.60
2022-12-03T06:35:20.524Z,11.50
2022-12-03T06:37:48.872Z,11.60
2022-12-03T06:40:18.807Z,11.50
2022-12-03T06:42:47.234Z,11.50
2022-12-03T06:45:15.666Z,11.40
2022-12-03T06:47:44.046Z,11.50
2022-12-03T06:50:13.709Z,11.60
2022-12-03T06:52:42.137Z,11.60
2022-12-03T06:55:10.923Z,11.60
2022-12-03T06:57:40.743Z,11.60
2022-12-03T07:00:10.140Z,11.60
2022-12-03T07:02:38.605Z,11.70
2022-12-03T07:05:07.041Z,11.60
2022-12-03T07:07:35.522Z,11.70
2022-12-03T07:10:04.562Z,11.80
2022-12-03T07:12:33.317Z,11.80
2022-12-03T07:15:03.193Z,11.80
2022-12-03T07:17:31.563Z,11.80
2022-12-03T07:19:59.939Z,11.80
2022-12-03T07:22:28.411Z,11.80
2022-12-03T07:24:56.880Z,11.90
2022-12-03T07:27:25.324Z,11.90
2022-12-03T07:29:53.746Z,12.00
2022-12-03T07:32:23.539Z,12.00
2022-12-03T07:34:52.220Z,12.00
2022-12-03T07:37:23.230Z,12.10
2022-12-03T07:39:52.647Z,12.10
2022-12-03T07:42:20.965Z,12.10
2022-12-03T07:44:49.421Z,12.10
2022-12-03T07:47:18.111Z,12.10
2022-12-03T07:49:48.041Z,12.20
2022-12-03T07:52:16.414Z,12.20
2022-12-03T07:54:45.067Z,12.20
2022-12-03T07:57:13.507Z,12.20
2022-12-03T07:59:41.891Z,12.20
2022-12-03T08:02:10.410Z,12.20
2022-12-03T08:04:39.043Z,12.10
2022-12-03T08:07:08.792Z,12.10
2022-12-03T08:09:37.137Z,12.10
2022-12-03T08:12:09.450Z,12.00
2022-12-03T08:14:37.840Z,12.00
2022-12-03T08:17:10.922Z,12.00
2022-12-03T08:19:39.448Z,12.00
2022-12-03T08:22:12.771Z,12.00
2022-12-03T08:24:41.287Z,12.00
2022-12-03T08:27:16.126Z,12.10
2022-12-03T08:29:44.522Z,12.10
2022-12-03T08:32:13.304Z,12.10
2022-12-03T08:34:42.589Z,12.10
2022-12-03T08:37:16.873Z,12.20
2022-12-03T08:39:46.074Z,12.20
2022-12-03T08:42:37.169Z,12.20
2022-12-03T08:45:28.157Z,12.20
2022-12-03T08:47:56.673Z,12.30
2022-12-03T08:50:27.494Z,12.30
2022-12-03T08:52:59.129Z,12.30
2022-12-03T08:55:33.689Z,12.30
2022-12-03T08:58:02.123Z,12.30
2022-12-03T09:00:30.448Z,12.30
2022-12-03T09:03:00.843Z,12.30
2022-12-03T09:05:30.641Z,12.40
2022-12-03T09:08:00.542Z,12.30
2022-12-03T09:10:28.944Z,12.40
2022-12-03T09:12:57.314Z,12.40
2022-12-03T09:15:25.745Z,12.50
2022-12-03T09:17:54.146Z,12.60
2022-12-03T09:20:22.574Z,12.70
2022-12-03T09:22:51.049Z,12.80
2022-12-03T09:25:20.868Z,12.90
2022-12-03T09:27:49.846Z,12.90
2022-12-03T09:30:18.410Z,12.90
2022-12-03T09:32:46.837Z,13.00
2022-12-03T09:35:15.194Z,13.10
2022-12-03T09:37:43.696Z,13.10
2022-12-03T09:40:12.772Z,13.10
2022-12-03T09:42:42.658Z,13.20
2022-12-03T09:45:12.322Z,13.30
2022-12-03T09:47:41.285Z,13.40
2022-12-03T09:50:12.549Z,13.50
2022-12-03T09:52:41.076Z,13.50
2022-12-03T09:55:13.405Z,13.50
2022-12-03T09:57:43.254Z,13.50
2022-12-03T10:00:16.436Z,13.60
2022-12-03T10:02:44.852Z,13.60
2022-12-03T10:05:13.585Z,13.60
2022-12-03T10:07:42.481Z,13.70
2022-12-03T10:10:16.410Z,13.80
2022-12-03T10:12:46.510Z,13.80
2022-12-03T10:15:15.911Z,13.80
2022-12-03T10:17:44.621Z,13.80
2022-12-03T10:20:14.118Z,14.00
2022-12-03T10:22:42.529Z,14.40
2022-12-03T10:25:12.599Z,14.60
2022-12-03T10:27:41.405Z,14.70
2022-12-03T10:30:17.959Z,14.70
2022-12-03T10:32:46.959Z,14.70
2022-12-03T10:35:16.300Z,14.70
2022-12-03T10:37:57.353Z,14.90
2022-12-03T10:40:26.376Z,14.90
2022-12-03T10:43:13.387Z,14.70
2022-12-03T10:45:43.414Z,14.40
2022-12-03T10:48:13.211Z,14.10
2022-12-03T10:50:49.280Z,14.00
2022-12-03T10:53:17.939Z,13.90
2022-12-03T10:55:47.180Z,13.90
2022-12-03T10:58:20.884Z,13.70
2022-12-03T11:00:51.598Z,13.70
2022-12-03T11:03:21.932Z,13.60
2022-12-03T11:05:50.514Z,13.70
2022-12-03T11:08:20.755Z,13.50
2022-12-03T11:10:57.340Z,13.50
2022-12-03T11:13:30.341Z,13.50
2022-12-03T11:16:00.528Z,13.40
2022-12-03T11:18:47.355Z,13.30
2022-12-03T11:21:16.065Z,13.30
2022-12-03T11:24:03.095Z,13.40
2022-12-03T11:26:50.460Z,13.50
2022-12-03T11:29:38.867Z,13.50
2022-12-03T11:32:08.687Z,13.50
2022-12-03T11:34:45.844Z,13.60
2022-12-03T11:37:24.020Z,13.70
2022-12-03T11:40:19.420Z,13.80
2022-12-03T11:42:48.971Z,13.80
2022-12-03T11:45:18.822Z,13.80
2022-12-03T11:48:01.232Z,13.90
2022-12-03T11:50:37.660Z,13.90
2022-12-03T11:53:13.111Z,13.90
2022-12-03T11:55:44.399Z,13.90
2022-12-03T11:58:16.963Z,14.00
2022-12-03T12:00:51.844Z,14.00
2022-12-03T12:03:26.085Z,14.00
2022-12-03T12:06:04.466Z,14.00
2022-12-03T12:08:32.936Z,14.00
2022-12-03T12:11:01.444Z,14.10
2022-12-03T12:13:44.650Z,14.20
2022-12-03T12:16:13.142Z,14.10
2022-12-03T12:18:43.688Z,14.20
2022-12-03T12:21:30.483Z,14.30
2022-12-03T12:23:58.837Z,14.20
2022-12-03T12:26:27.178Z,14.20
2022-12-03T12:28:55.635Z,14.10
2022-12-03T12:31:24.133Z,14.10
2022-12-03T12:33:53.944Z,14.00
2022-12-03T12:36:22.328Z,14.00
2022-12-03T12:38:50.767Z,14.00
2022-12-03T12:41:19.168Z,14.00
2022-12-03T12:43:47.680Z,14.10
2022-12-03T12:46:46.526Z,13.90
2022-12-03T12:49:10.560Z,13.90
2022-12-03T12:51:39.168Z,13.80
2022-12-03T12:54:11.001Z,13.80
2022-12-03T12:56:42.331Z,13.80
2022-12-03T12:59:11.845Z,13.80
2022-12-03T13:01:40.990Z,13.90
2022-12-03T13:04:13.722Z,13.90
2022-12-03T13:06:42.416Z,14.00
2022-12-03T13:09:14.071Z,14.10
2022-12-03T13:11:45.818Z,14.30
2022-12-03T13:14:18.785Z,14.30
2022-12-03T13:16:47.621Z,14.20
2022-12-03T13:19:24.754Z,14.40
2022-12-03T13:21:53.602Z,14.40
2022-12-03T13:24:31.238Z,14.40
2022-12-03T13:27:00.087Z,14.30
2022-12-03T13:29:28.798Z,14.50
2022-12-03T13:31:58.301Z,14.40
2022-12-03T13:34:29.123Z,14.40
2022-12-03T13:36:58.810Z,14.30
2022-12-03T13:39:29.219Z,14.20
2022-12-03T13:42:15.848Z,14.30
2022-12-03T13:44:45.640Z,14.40
2022-12-03T13:47:15.219Z,14.30
2022-12-03T13:49:48.071Z,14.30
2022-12-03T13:52:17.450Z,14.30
2022-12-03T13:54:46.128Z,14.40
2022-12-03T13:57:14.546Z,14.50
2022-12-03T13:59:43.032Z,14.60
2022-12-03T14:02:12.815Z,14.60
2022-12-03T14:04:41.826Z,14.50
2022-12-03T14:07:11.652Z,14.40
2022-12-03T14:09:40.052Z,14.40
2022-12-03T14:12:26.756Z,14.40
2022-12-03T14:14:55.309Z,14.40
2022-12-03T14:17:23.683Z,14.50
2022-12-03T14:19:52.862Z,14.40
2022-12-03T14:22:25.303Z,14.50
2022-12-03T14:24:54.225Z,14.50
2022-12-03T14:27:23.268Z,14.40
2022-12-03T14:29:52.241Z,14.40
2022-12-03T14:32:20.957Z,14.40
2022-12-03T14:34:49.362Z,14.50
2022-12-03T14:37:17.828Z,14.30
2022-12-03T14:39:47.644Z,14.30
2022-12-03T14:42:16.893Z,14.20
2022-12-03T14:44:46.204Z,14.30
2022-12-03T14:47:15.452Z,14.20
2022-12-03T14:49:43.852Z,14.20
2022-12-03T14:52:12.928Z,14.20
2022-12-03T14:54:42.616Z,14.30
2022-12-03T14:57:13.578Z,14.30
2022-12-03T14:59:42.302Z,14.30
2022-12-03T15:02:11.157Z,14.20
2022-12-03T15:04:39.740Z,14.10
2022-12-03T15:07:08.443Z,14.00
2022-12-03T15:09:36.838Z,13.90
2022-12-03T15:12:05.650Z,13.90
2022-12-03T15:14:35.393Z,13.90
2022-12-03T15:17:03.829Z,13.90
2022-12-03T15:19:32.273Z,13.80
2022-12-03T15:22:00.697Z,13.80
2022-12-03T15:24:29.076Z,13.80
2022-12-03T15:26:57.390Z,13.80
2022-12-03T15:29:25.788Z,13.70
2022-12-03T15:31:55.651Z,13.70
2022-12-03T15:34:24.100Z,13.70
2022-12-03T15:36:53.122Z,13.70
2022-12-03T15:39:21.570Z,13.60
2022-12-03T15:41:49.988Z,13.60
2022-12-03T15:44:18.400Z,13.60
2022-12-03T15:46:46.829Z,13.60
2022-12-03T15:49:16.677Z,13.50
2022-12-03T15:51:45.127Z,13.50
2022-12-03T15:54:13.537Z,13.50
2022-12-03T15:56:41.942Z,13.50
2022-12-03T15:59:10.325Z,13.50
2022-12-03T16:01:38.771Z,13.50
2022-12-03T16:04:07.236Z,13.50
2022-12-03T16:06:37.035Z,13.50
2022-12-03T16:09:05.549Z,13.50
2022-12-03T16:11:33.941Z,13.60
2022-12-03T16:14:02.309Z,13.50
2022-12-03T16:16:30.720Z,13.50
2022-12-03T16:18:59.133Z,13.40
2022-12-03T16:21:27.588Z,13.40
2022-12-03T16:23:57.428Z,13.40
2022-12-03T16:26:29.534Z,13.40
2022-12-03T16:28:57.981Z,13.40
2022-12-03T16:31:26.873Z,13.30
2022-12-03T16:33:55.434Z,13.30
2022-12-03T16:36:23.916Z,13.30
2022-12-03T16:38:52.365Z,13.30
2022-12-03T16:41:22.488Z,13.30
2022-12-03T16:43:50.886Z,13.30
2022-12-03T16:46:25.775Z,13.30
2022-12-03T16:48:55.330Z,13.20
2022-12-03T16:51:23.681Z,13.20
2022-12-03T16:53:52.150Z,13.20
2022-12-03T16:56:20.525Z,13.10
2022-12-03T16:58:50.251Z,13.20
2022-12-03T17:01:18.768Z,13.10
2022-12-03T17:03:47.309Z,13.10
2022-12-03T17:06:15.778Z,13.10
2022-12-03T17:08:49.139Z,13.10
2022-12-03T17:11:18.625Z,13.10
2022-12-03T17:13:47.153Z,13.00
2022-12-03T17:16:17.059Z,13.00
2022-12-03T17:18:45.474Z,13.10
2022-12-03T17:21:13.849Z,13.00
2022-12-03T17:23:42.248Z,13.00
2022-12-03T17:26:10.643Z,13.00
2022-12-03T17:28:39.016Z,13.00
2022-12-03T17:31:07.428Z,13.00
2022-12-03T17:33:37.198Z,13.00
2022-12-03T17:36:05.839Z,13.00
2022-12-03T17:38:38.978Z,13.00
2022-12-03T17:41:08.508Z,13.00
2022-12-03T17:43:36.817Z,13.00
2022-12-03T17:46:06.714Z,13.00
2022-12-03T17:48:35.462Z,13.00
2022-12-03T17:51:05.300Z,13.00
2022-12-03T17:53:33.756Z,13.00
2022-12-03T17:56:02.114Z,13.00
2022-12-03T17:58:30.432Z,13.00
2022-12-03T18:01:02.876Z,12.90
2022-12-03T18:03:32.007Z,12.90
2022-12-03T18:06:00.450Z,12.90
2022-12-03T18:08:30.175Z,12.90
2022-12-03T18:10:58.587Z,12.90
2022-12-03T18:13:27.135Z,13.00
2022-12-03T18:15:55.602Z,13.00
2022-12-03T18:18:23.956Z,13.00
2022-12-03T18:20:52.989Z,13.10
2022-12-03T18:23:21.512Z,13.20
2022-12-03T18:25:51.319Z,13.10
2022-12-03T18:28:19.769Z,13.10
2022-12-03T18:30:52.473Z,13.00
2022-12-03T18:33:21.613Z,13.00
2022-12-03T18:35:52.519Z,13.00
2022-12-03T18:38:21.601Z,13.00
2022-12-03T18:40:52.757Z,13.10
2022-12-03T18:43:21.172Z,13.10
2022-12-03T18:45:49.488Z,13.10
2022-12-03T18:48:18.895Z,13.20
2022-12-03T18:50:47.299Z,13.40
2022-12-03T18:53:16.896Z,13.30
2022-12-03T18:55:46.291Z,13.30
2022-12-03T18:58:16.117Z,13.30
2022-12-03T19:00:44.552Z,13.20
2022-12-03T19:03:13.077Z,13.20
2022-12-03T19:05:41.601Z,13.20
2022-12-03T19:08:14.861Z,13.20
2022-12-03T19:10:43.689Z,13.30
2022-12-03T19:13:12.130Z,13.30
2022-12-03T19:15:41.946Z,13.30
2022-12-03T19:18:10.358Z,13.30
2022-12-03T19:20:40.987Z,13.30
2022-12-03T19:23:09.353Z,13.20
2022-12-03T19:25:37.803Z,13.30
2022-12-03T19:28:06.263Z,13.30
2022-12-03T19:30:34.684Z,13.30
2022-12-03T19:33:04.464Z,13.20
2022-12-03T19:35:33.591Z,13.30
2022-12-03T19:38:01.970Z,13.30
2022-12-03T19:40:32.219Z,13.30
2022-12-03T19:43:00.797Z,13.30
2022-12-03T19:45:29.212Z,13.30
2022-12-03T19:47:57.559Z,13.20
2022-12-03T19:50:27.383Z,13.20
2022-12-03T19:52:55.773Z,13.10
2022-12-03T19:55:24.202Z,13.10
2022-12-03T19:57:52.541Z,13.10
2022-12-03T20:00:21.121Z,13.00
2022-12-03T20:02:50.149Z,13.10
2022-12-03T20:05:18.730Z,13.10
2022-12-03T20:07:48.593Z,13.20
2022-12-03T20:10:16.977Z,13.20
2022-12-03T20:12:45.792Z,13.30
2022-12-03T20:15:14.959Z,13.30
2022-12-03T20:17:43.330Z,13.40
2022-12-03T20:20:12.124Z,13.30
2022-12-03T20:22:40.506Z,13.40
2022-12-03T20:25:10.566Z,13.30
2022-12-03T20:27:39.233Z,13.40
2022-12-03T20:30:08.114Z,13.40
2022-12-03T20:32:42.010Z,13.60
2022-12-03T20:35:13.387Z,13.50
2022-12-03T20:37:41.837Z,13.60
2022-12-03T20:40:12.221Z,13.70
2022-12-03T20:42:40.660Z,13.80
2022-12-03T20:45:09.586Z,13.80
2022-12-03T20:47:37.901Z,13.90
2022-12-03T20:50:06.894Z,13.80
2022-12-03T20:52:35.407Z,13.80
2022-12-03T20:55:03.778Z,13.80
2022-12-03T20:57:33.586Z,13.90
2022-12-03T21:00:01.972Z,13.90
2022-12-03T21:02:30.499Z,14.00
2022-12-03T21:04:59.088Z,14.00
2022-12-03T21:07:27.530Z,14.00
2022-12-03T21:09:56.242Z,14.00
2022-12-03T21:12:24.820Z,14.00
2022-12-03T21:14:54.596Z,14.00
2022-12-03T21:17:23.062Z,14.00
2022-12-03T21:19:51.713Z,13.90
2022-12-03T21:22:20.181Z,14.00
2022-12-03T21:24:48.634Z,14.00
2022-12-03T21:27:21.661Z,14.00
2022-12-03T21:29:50.578Z,13.90
2022-12-03T21:32:20.431Z,13.80
2022-12-03T21:34:48.809Z,13.70
2022-12-03T21:37:17.191Z,13.70
2022-12-03T21:39:45.822Z,13.60
2022-12-03T21:42:34.657Z,13.60
2022-12-03T21:45:02.581Z,13.70
2022-12-03T21:47:37.209Z,13.80
2022-12-03T21:50:07.145Z,13.70
2022-12-03T21:52:35.643Z,13.80
2022-12-03T21:55:03.972Z,13.80
2022-12-03T21:57:32.357Z,13.80
2022-12-03T22:00:00.859Z,13.80
2022-12-03T22:02:29.366Z,13.80
2022-12-03T22:04:59.227Z,13.80
2022-12-03T22:07:27.672Z,13.90
2022-12-03T22:09:56.313Z,13.80
2022-12-03T22:12:24.933Z,13.90
2022-12-03T22:14:53.690Z,13.80
2022-12-03T22:17:22.111Z,13.90
2022-12-03T22:19:50.581Z,14.00
2022-12-03T22:22:20.502Z,14.00
2022-12-03T22:24:49.062Z,14.00
2022-12-03T22:27:17.507Z,14.10
2022-12-03T22:29:45.961Z,14.00
2022-12-03T22:32:14.411Z,14.20
2022-12-03T22:34:43.110Z,14.00
2022-12-03T22:37:11.515Z,14.00
2022-12-03T22:39:41.369Z,13.90
2022-12-03T22:42:09.847Z,13.80
2022-12-03T22:44:38.174Z,13.70
2022-12-03T22:47:06.753Z,13.80
2022-12-03T22:49:35.172Z,13.70
2022-12-03T22:52:03.544Z,13.60
2022-12-03T22:54:31.892Z,13.50
2022-12-03T22:57:02.031Z,13.50
2022-12-03T22:59:30.503Z,13.60
2022-12-03T23:01:58.956Z,13.60
2022-12-03T23:04:27.348Z,13.60
2022-12-03T23:06:55.692Z,13.60
2022-12-03T23:09:24.003Z,13.60
2022-12-03T23:11:52.396Z,13.50
2022-12-03T23:14:22.249Z,13.50
2022-12-03T23:16:50.618Z,13.50
2022-12-03T23:19:20.002Z,13.50
2022-12-03T23:21:48.481Z,13.50
2022-12-03T23:24:16.911Z,13.50
2022-12-03T23:26:45.364Z,13.40
2022-12-03T23:29:13.713Z,13.40
2022-12-03T23:31:44.050Z,13.50
2022-12-03T23:34:12.664Z,13.70
2022-12-03T23:36:41.043Z,13.80
2022-12-03T23:39:11.617Z,13.90
2022-12-03T23:41:39.976Z,13.90
2022-12-03T23:44:08.400Z,13.80
2022-12-03T23:46:40.361Z,13.90
2022-12-03T23:49:10.289Z,13.90
2022-12-03T23:51:38.731Z,13.80
2022-12-03T23:54:07.284Z,13.80
2022-12-03T23:56:35.664Z,13.70
2022-12-03T23:59:04.150Z,13.60
